sensor_id;sensor_type;location;lat;lon;timestamp;P1;durP1;ratioP1;P2;durP2;ratioP2
9508;SDS011;4792;50.088;8.122;2023-12-20T00:01:35;8.70;;;5.90;;
9508;SDS011;4792;50.088;8.122;2023-12-20T00:04:03;9.47;;;6.37;;
9508;SDS011;4792;50.088;8.122;2023-12-20T00:06:31;6.93;;;4.80;;
9508;SDS011;4792;50.088;8.122;2023-12-20T00:08:59;7.87;;;5.97;;
9508;SDS011;4792;50.088;8.122;2023-12-20T00:11:26;6.83;;;5.33;;
9508;SDS011;4792;50.088;8.122;2023-12-20T00:13:55;7.03;;;4.50;;
9508;SDS011;4792;50.088;8.122;2023-12-20T00:16:23;4.00;;;3.13;;
9508;SDS011;4792;50.088;8.122;2023-12-20T00:18:51;7.13;;;4.67;;
9508;SDS011;4792;50.088;8.122;2023-12-20T00:21:18;4.60;;;3.53;;
9508;SDS011;4792;50.088;8.122;2023-12-20T00:23:46;5.73;;;3.20;;
9508;SDS011;4792;50.088;8.122;2023-12-20T00:26:14;2.30;;;2.10;;
9508;SDS011;4792;50.088;8.122;2023-12-20T00:28:41;2.30;;;2.00;;
9508;SDS011;4792;50.088;8.122;2023-12-20T00:31:10;2.37;;;1.90;;
9508;SDS011;4792;50.088;8.122;2023-12-20T00:33:38;2.00;;;1.90;;
9508;SDS011;4792;50.088;8.122;2023-12-20T00:36:10;2.17;;;1.87;;
9508;SDS011;4792;50.088;8.122;2023-12-20T00:38:37;1.70;;;1.60;;
9508;SDS011;4792;50.088;8.122;2023-12-20T00:41:05;2.00;;;1.70;;
9508;SDS011;4792;50.088;8.122;2023-12-20T00:43:32;2.40;;;2.20;;
9508;SDS011;4792;50.088;8.122;2023-12-20T00:46:03;2.60;;;2.17;;
9508;SDS011;4792;50.088;8.122;2023-12-20T00:48:32;2.57;;;2.33;;
9508;SDS011;4792;50.088;8.122;2023-12-20T00:51:00;2.10;;;1.90;;
9508;SDS011;4792;50.088;8.122;2023-12-20T00:53:27;3.00;;;1.70;;
9508;SDS011;4792;50.088;8.122;2023-12-20T00:55:55;3.60;;;1.97;;
9508;SDS011;4792;50.088;8.122;2023-12-20T00:58:24;2.20;;;2.00;;
9508;SDS011;4792;50.088;8.122;2023-12-20T01:00:52;2.40;;;2.20;;
9508;SDS011;4792;50.088;8.122;2023-12-20T01:03:20;3.80;;;2.10;;
9508;SDS011;4792;50.088;8.122;2023-12-20T01:05:49;3.73;;;2.80;;
9508;SDS011;4792;50.088;8.122;2023-12-20T01:08:17;3.03;;;2.70;;
9508;SDS011;4792;50.088;8.122;2023-12-20T01:10:45;4.60;;;3.80;;
9508;SDS011;4792;50.088;8.122;2023-12-20T01:13:13;2.70;;;2.50;;
9508;SDS011;4792;50.088;8.122;2023-12-20T01:15:41;4.57;;;3.60;;
9508;SDS011;4792;50.088;8.122;2023-12-20T01:18:09;86.07;;;8.23;;
9508;SDS011;4792;50.088;8.122;2023-12-20T01:20:36;3.10;;;2.80;;
9508;SDS011;4792;50.088;8.122;2023-12-20T01:23:05;5.87;;;4.37;;
9508;SDS011;4792;50.088;8.122;2023-12-20T01:25:33;6.70;;;5.20;;
9508;SDS011;4792;50.088;8.122;2023-12-20T01:28:00;6.53;;;4.87;;
9508;SDS011;4792;50.088;8.122;2023-12-20T01:30:29;431.73;;;25.00;;
9508;SDS011;4792;50.088;8.122;2023-12-20T01:32:58;532.07;;;34.37;;
9508;SDS011;4792;50.088;8.122;2023-12-20T01:35:27;447.43;;;23.83;;
9508;SDS011;4792;50.088;8.122;2023-12-20T01:37:54;198.63;;;16.33;;
9508;SDS011;4792;50.088;8.122;2023-12-20T01:40:24;76.83;;;9.07;;
9508;SDS011;4792;50.088;8.122;2023-12-20T01:42:57;99.07;;;9.70;;
9508;SDS011;4792;50.088;8.122;2023-12-20T01:45:25;10.57;;;6.00;;
9508;SDS011;4792;50.088;8.122;2023-12-20T01:47:53;8.83;;;5.43;;
9508;SDS011;4792;50.088;8.122;2023-12-20T01:50:21;12.93;;;5.30;;
9508;SDS011;4792;50.088;8.122;2023-12-20T01:52:49;17.70;;;10.50;;
9508;SDS011;4792;50.088;8.122;2023-12-20T01:55:18;8.07;;;6.10;;
9508;SDS011;4792;50.088;8.122;2023-12-20T01:57:48;3.90;;;3.17;;
9508;SDS011;4792;50.088;8.122;2023-12-20T02:00:16;2.87;;;2.67;;
9508;SDS011;4792;50.088;8.122;2023-12-20T02:02:44;3.47;;;2.80;;
9508;SDS011;4792;50.088;8.122;2023-12-20T02:05:12;2.47;;;2.10;;
9508;SDS011;4792;50.088;8.122;2023-12-20T02:07:40;2.43;;;2.23;;
9508;SDS011;4792;50.088;8.122;2023-12-20T02:10:07;2.90;;;2.57;;
9508;SDS011;4792;50.088;8.122;2023-12-20T02:12:35;2.03;;;1.50;;
9508;SDS011;4792;50.088;8.122;2023-12-20T02:15:05;2.87;;;2.50;;
9508;SDS011;4792;50.088;8.122;2023-12-20T02:17:33;2.20;;;2.00;;
9508;SDS011;4792;50.088;8.122;2023-12-20T02:20:01;3.10;;;2.40;;
9508;SDS011;4792;50.088;8.122;2023-12-20T02:22:30;3.57;;;3.13;;
9508;SDS011;4792;50.088;8.122;2023-12-20T02:24:58;8.63;;;4.60;;
9508;SDS011;4792;50.088;8.122;2023-12-20T02:27:25;7.33;;;4.63;;
9508;SDS011;4792;50.088;8.122;2023-12-20T02:29:54;7.43;;;4.63;;
9508;SDS011;4792;50.088;8.122;2023-12-20T02:32:21;125.57;;;9.67;;
9508;SDS011;4792;50.088;8.122;2023-12-20T02:34:52;331.97;;;21.00;;
9508;SDS011;4792;50.088;8.122;2023-12-20T02:37:19;187.70;;;11.30;;
9508;SDS011;4792;50.088;8.122;2023-12-20T02:39:49;384.67;;;21.60;;
9508;SDS011;4792;50.088;8.122;2023-12-20T02:42:16;4.70;;;4.23;;
9508;SDS011;4792;50.088;8.122;2023-12-20T02:44:44;84.60;;;7.87;;
9508;SDS011;4792;50.088;8.122;2023-12-20T02:47:11;11.80;;;4.20;;
9508;SDS011;4792;50.088;8.122;2023-12-20T02:49:39;340.37;;;22.00;;
9508;SDS011;4792;50.088;8.122;2023-12-20T02:52:07;520.23;;;28.27;;
9508;SDS011;4792;50.088;8.122;2023-12-20T02:54:34;545.33;;;30.30;;
9508;SDS011;4792;50.088;8.122;2023-12-20T02:57:03;550.40;;;32.33;;
9508;SDS011;4792;50.088;8.122;2023-12-20T02:59:31;518.47;;;29.27;;
9508;SDS011;4792;50.088;8.122;2023-12-20T03:01:59;320.00;;;18.93;;
9508;SDS011;4792;50.088;8.122;2023-12-20T03:04:26;355.93;;;19.97;;
9508;SDS011;4792;50.088;8.122;2023-12-20T03:06:54;103.23;;;9.23;;
9508;SDS011;4792;50.088;8.122;2023-12-20T03:09:22;4.53;;;3.53;;
9508;SDS011;4792;50.088;8.122;2023-12-20T03:11:49;3.97;;;3.57;;
9508;SDS011;4792;50.088;8.122;2023-12-20T03:14:18;17.10;;;5.17;;
9508;SDS011;4792;50.088;8.122;2023-12-20T03:16:46;9.27;;;4.80;;
9508;SDS011;4792;50.088;8.122;2023-12-20T03:19:14;3.73;;;3.30;;
9508;SDS011;4792;50.088;8.122;2023-12-20T03:21:42;5.93;;;4.43;;
9508;SDS011;4792;50.088;8.122;2023-12-20T03:24:10;5.27;;;4.40;;
9508;SDS011;4792;50.088;8.122;2023-12-20T03:26:38;5.30;;;4.33;;
9508;SDS011;4792;50.088;8.122;2023-12-20T03:29:05;6.93;;;3.63;;
9508;SDS011;4792;50.088;8.122;2023-12-20T03:31:34;6.80;;;4.43;;
9508;SDS011;4792;50.088;8.122;2023-12-20T03:34:02;5.47;;;4.00;;
9508;SDS011;4792;50.088;8.122;2023-12-20T03:36:29;4.63;;;3.70;;
9508;SDS011;4792;50.088;8.122;2023-12-20T03:38:57;5.30;;;3.73;;
9508;SDS011;4792;50.088;8.122;2023-12-20T03:41:25;3.90;;;3.47;;
9508;SDS011;4792;50.088;8.122;2023-12-20T03:43:52;4.83;;;3.63;;
9508;SDS011;4792;50.088;8.122;2023-12-20T03:46:20;6.67;;;3.90;;
9508;SDS011;4792;50.088;8.122;2023-12-20T03:48:49;3.80;;;3.40;;
9508;SDS011;4792;50.088;8.122;2023-12-20T03:51:17;4.53;;;4.00;;
9508;SDS011;4792;50.088;8.122;2023-12-20T03:53:44;4.97;;;4.00;;
9508;SDS011;4792;50.088;8.122;2023-12-20T03:56:12;6.43;;;4.80;;
9508;SDS011;4792;50.088;8.122;2023-12-20T03:58:39;5.03;;;3.87;;
9508;SDS011;4792;50.088;8.122;2023-12-20T04:01:09;5.57;;;3.83;;
9508;SDS011;4792;50.088;8.122;2023-12-20T04:03:37;4.93;;;3.93;;
9508;SDS011;4792;50.088;8.122;2023-12-20T04:06:07;6.50;;;4.20;;
9508;SDS011;4792;50.088;8.122;2023-12-20T04:08:35;4.40;;;4.00;;
9508;SDS011;4792;50.088;8.122;2023-12-20T04:11:02;4.07;;;3.67;;
9508;SDS011;4792;50.088;8.122;2023-12-20T04:13:30;4.67;;;3.70;;
9508;SDS011;4792;50.088;8.122;2023-12-20T04:15:58;4.00;;;3.50;;
9508;SDS011;4792;50.088;8.122;2023-12-20T04:18:25;3.50;;;3.20;;
9508;SDS011;4792;50.088;8.122;2023-12-20T04:20:54;3.57;;;2.70;;
9508;SDS011;4792;50.088;8.122;2023-12-20T04:23:23;3.33;;;3.03;;
9508;SDS011;4792;50.088;8.122;2023-12-20T04:25:51;2.83;;;2.60;;
9508;SDS011;4792;50.088;8.122;2023-12-20T04:28:18;4.17;;;2.83;;
9508;SDS011;4792;50.088;8.122;2023-12-20T04:30:46;3.33;;;2.83;;
9508;SDS011;4792;50.088;8.122;2023-12-20T04:33:14;6.27;;;2.80;;
9508;SDS011;4792;50.088;8.122;2023-12-20T04:35:41;6.40;;;3.33;;
9508;SDS011;4792;50.088;8.122;2023-12-20T04:38:09;7.83;;;4.33;;
9508;SDS011;4792;50.088;8.122;2023-12-20T04:40:38;6.53;;;5.07;;
9508;SDS011;4792;50.088;8.122;2023-12-20T04:43:07;5.13;;;2.57;;
9508;SDS011;4792;50.088;8.122;2023-12-20T04:45:35;7.30;;;2.13;;
9508;SDS011;4792;50.088;8.122;2023-12-20T04:48:03;4.80;;;2.60;;
9508;SDS011;4792;50.088;8.122;2023-12-20T04:50:31;5.00;;;2.40;;
9508;SDS011;4792;50.088;8.122;2023-12-20T04:52:59;7.07;;;2.53;;
9508;SDS011;4792;50.088;8.122;2023-12-20T04:55:27;6.70;;;1.93;;
9508;SDS011;4792;50.088;8.122;2023-12-20T04:57:56;5.73;;;2.10;;
9508;SDS011;4792;50.088;8.122;2023-12-20T05:00:23;5.07;;;2.00;;
9508;SDS011;4792;50.088;8.122;2023-12-20T05:02:51;6.37;;;2.13;;
9508;SDS011;4792;50.088;8.122;2023-12-20T05:05:19;4.67;;;1.83;;
9508;SDS011;4792;50.088;8.122;2023-12-20T05:07:48;4.47;;;1.97;;
9508;SDS011;4792;50.088;8.122;2023-12-20T05:10:16;8.70;;;2.10;;
9508;SDS011;4792;50.088;8.122;2023-12-20T05:12:43;6.93;;;2.37;;
9508;SDS011;4792;50.088;8.122;2023-12-20T05:15:12;3.93;;;2.70;;
9508;SDS011;4792;50.088;8.122;2023-12-20T05:17:40;3.40;;;2.27;;
9508;SDS011;4792;50.088;8.122;2023-12-20T05:20:08;5.27;;;2.27;;
9508;SDS011;4792;50.088;8.122;2023-12-20T05:22:36;7.80;;;2.70;;
9508;SDS011;4792;50.088;8.122;2023-12-20T05:25:05;3.23;;;1.90;;
9508;SDS011;4792;50.088;8.122;2023-12-20T05:27:33;3.97;;;2.20;;
9508;SDS011;4792;50.088;8.122;2023-12-20T05:30:00;8.17;;;1.83;;
9508;SDS011;4792;50.088;8.122;2023-12-20T05:32:29;8.60;;;2.37;;
9508;SDS011;4792;50.088;8.122;2023-12-20T05:34:57;6.57;;;2.60;;
9508;SDS011;4792;50.088;8.122;2023-12-20T05:37:25;6.70;;;2.40;;
9508;SDS011;4792;50.088;8.122;2023-12-20T05:39:52;8.20;;;2.67;;
9508;SDS011;4792;50.088;8.122;2023-12-20T05:42:20;6.70;;;2.63;;
9508;SDS011;4792;50.088;8.122;2023-12-20T05:44:48;7.27;;;2.70;;
9508;SDS011;4792;50.088;8.122;2023-12-20T05:47:19;4.70;;;2.10;;
9508;SDS011;4792;50.088;8.122;2023-12-20T05:49:47;4.97;;;2.23;;
9508;SDS011;4792;50.088;8.122;2023-12-20T05:52:16;5.63;;;2.10;;
9508;SDS011;4792;50.088;8.122;2023-12-20T05:54:44;8.23;;;2.67;;
9508;SDS011;4792;50.088;8.122;2023-12-20T05:57:12;7.30;;;2.60;;
9508;SDS011;4792;50.088;8.122;2023-12-20T05:59:39;5.87;;;2.50;;
9508;SDS011;4792;50.088;8.122;2023-12-20T06:02:07;8.63;;;2.40;;
9508;SDS011;4792;50.088;8.122;2023-12-20T06:04:35;9.57;;;3.37;;
9508;SDS011;4792;50.088;8.122;2023-12-20T06:07:04;8.77;;;2.30;;
9508;SDS011;4792;50.088;8.122;2023-12-20T06:09:32;7.20;;;2.47;;
9508;SDS011;4792;50.088;8.122;2023-12-20T06:11:59;6.97;;;2.50;;
9508;SDS011;4792;50.088;8.122;2023-12-20T06:14:27;10.77;;;3.03;;
9508;SDS011;4792;50.088;8.122;2023-12-20T06:16:57;14.03;;;2.90;;
9508;SDS011;4792;50.088;8.122;2023-12-20T06:19:24;7.50;;;2.70;;
9508;SDS011;4792;50.088;8.122;2023-12-20T06:21:52;6.17;;;2.67;;
9508;SDS011;4792;50.088;8.122;2023-12-20T06:24:21;11.33;;;2.90;;
9508;SDS011;4792;50.088;8.122;2023-12-20T06:26:49;7.47;;;2.40;;
9508;SDS011;4792;50.088;8.122;2023-12-20T06:29:16;8.20;;;2.70;;
9508;SDS011;4792;50.088;8.122;2023-12-20T06:31:44;5.30;;;2.03;;
9508;SDS011;4792;50.088;8.122;2023-12-20T06:34:12;7.33;;;2.63;;
9508;SDS011;4792;50.088;8.122;2023-12-20T06:36:39;13.23;;;2.90;;
9508;SDS011;4792;50.088;8.122;2023-12-20T06:39:07;5.70;;;2.60;;
9508;SDS011;4792;50.088;8.122;2023-12-20T06:41:36;6.13;;;2.10;;
9508;SDS011;4792;50.088;8.122;2023-12-20T06:44:04;13.63;;;2.87;;
9508;SDS011;4792;50.088;8.122;2023-12-20T06:46:32;6.00;;;2.90;;
9508;SDS011;4792;50.088;8.122;2023-12-20T06:48:59;5.87;;;2.67;;
9508;SDS011;4792;50.088;8.122;2023-12-20T06:51:27;8.33;;;2.50;;
9508;SDS011;4792;50.088;8.122;2023-12-20T06:53:57;9.50;;;3.07;;
9508;SDS011;4792;50.088;8.122;2023-12-20T06:56:25;22.77;;;9.63;;
9508;SDS011;4792;50.088;8.122;2023-12-20T06:58:54;7.40;;;2.70;;
9508;SDS011;4792;50.088;8.122;2023-12-20T07:01:21;15.60;;;4.63;;
9508;SDS011;4792;50.088;8.122;2023-12-20T07:03:49;11.93;;;3.30;;
9508;SDS011;4792;50.088;8.122;2023-12-20T07:06:17;43.50;;;20.23;;
9508;SDS011;4792;50.088;8.122;2023-12-20T07:08:45;17.33;;;8.03;;
9508;SDS011;4792;50.088;8.122;2023-12-20T07:11:13;7.87;;;3.30;;
9508;SDS011;4792;50.088;8.122;2023-12-20T07:13:40;10.43;;;2.87;;
9508;SDS011;4792;50.088;8.122;2023-12-20T07:16:09;12.40;;;3.10;;
9508;SDS011;4792;50.088;8.122;2023-12-20T07:18:37;14.20;;;3.00;;
9508;SDS011;4792;50.088;8.122;2023-12-20T07:21:05;13.63;;;3.90;;
9508;SDS011;4792;50.088;8.122;2023-12-20T07:23:34;7.83;;;2.30;;
9508;SDS011;4792;50.088;8.122;2023-12-20T07:26:01;4.90;;;2.10;;
9508;SDS011;4792;50.088;8.122;2023-12-20T07:28:30;9.63;;;2.83;;
9508;SDS011;4792;50.088;8.122;2023-12-20T07:30:58;7.27;;;2.63;;
9508;SDS011;4792;50.088;8.122;2023-12-20T07:33:27;9.77;;;3.00;;
9508;SDS011;4792;50.088;8.122;2023-12-20T07:35:59;13.10;;;3.00;;
9508;SDS011;4792;50.088;8.122;2023-12-20T07:38:27;8.00;;;2.67;;
9508;SDS011;4792;50.088;8.122;2023-12-20T07:40:54;7.53;;;2.53;;
9508;SDS011;4792;50.088;8.122;2023-12-20T07:43:22;9.97;;;2.80;;
9508;SDS011;4792;50.088;8.122;2023-12-20T07:45:49;7.93;;;2.60;;
9508;SDS011;4792;50.088;8.122;2023-12-20T07:48:17;10.97;;;3.10;;
9508;SDS011;4792;50.088;8.122;2023-12-20T07:50:46;7.63;;;2.90;;
9508;SDS011;4792;50.088;8.122;2023-12-20T07:53:14;8.17;;;3.10;;
9508;SDS011;4792;50.088;8.122;2023-12-20T07:55:41;9.67;;;2.70;;
9508;SDS011;4792;50.088;8.122;2023-12-20T07:58:09;7.53;;;2.50;;
9508;SDS011;4792;50.088;8.122;2023-12-20T08:00:37;18.73;;;5.03;;
9508;SDS011;4792;50.088;8.122;2023-12-20T08:03:04;13.67;;;6.57;;
9508;SDS011;4792;50.088;8.122;2023-12-20T08:05:33;14.27;;;5.07;;
9508;SDS011;4792;50.088;8.122;2023-12-20T08:08:02;9.03;;;3.20;;
9508;SDS011;4792;50.088;8.122;2023-12-20T08:10:30;5.97;;;2.67;;
9508;SDS011;4792;50.088;8.122;2023-12-20T08:12:57;8.87;;;2.90;;
9508;SDS011;4792;50.088;8.122;2023-12-20T08:15:25;12.50;;;3.67;;
9508;SDS011;4792;50.088;8.122;2023-12-20T08:17:53;7.00;;;3.83;;
9508;SDS011;4792;50.088;8.122;2023-12-20T08:20:21;10.07;;;3.90;;
9508;SDS011;4792;50.088;8.122;2023-12-20T08:23:03;12.07;;;4.13;;
9508;SDS011;4792;50.088;8.122;2023-12-20T08:25:31;6.57;;;3.07;;
9508;SDS011;4792;50.088;8.122;2023-12-20T08:27:58;7.60;;;3.20;;
9508;SDS011;4792;50.088;8.122;2023-12-20T08:30:26;8.80;;;2.90;;
9508;SDS011;4792;50.088;8.122;2023-12-20T08:32:54;14.27;;;3.93;;
9508;SDS011;4792;50.088;8.122;2023-12-20T08:35:21;7.03;;;2.60;;
9508;SDS011;4792;50.088;8.122;2023-12-20T08:37:50;14.07;;;3.43;;
9508;SDS011;4792;50.088;8.122;2023-12-20T08:40:19;9.30;;;3.00;;
9508;SDS011;4792;50.088;8.122;2023-12-20T08:42:47;9.67;;;2.77;;
9508;SDS011;4792;50.088;8.122;2023-12-20T08:45:14;7.23;;;2.47;;
9508;SDS011;4792;50.088;8.122;2023-12-20T08:47:42;8.03;;;2.70;;
9508;SDS011;4792;50.088;8.122;2023-12-20T08:50:11;12.50;;;2.90;;
9508;SDS011;4792;50.088;8.122;2023-12-20T08:52:39;8.97;;;2.93;;
9508;SDS011;4792;50.088;8.122;2023-12-20T08:55:08;12.67;;;3.47;;
9508;SDS011;4792;50.088;8.122;2023-12-20T08:57:38;7.83;;;3.37;;
9508;SDS011;4792;50.088;8.122;2023-12-20T09:00:06;11.63;;;3.43;;
9508;SDS011;4792;50.088;8.122;2023-12-20T09:02:35;9.77;;;2.93;;
9508;SDS011;4792;50.088;8.122;2023-12-20T09:05:04;12.73;;;3.43;;
9508;SDS011;4792;50.088;8.122;2023-12-20T09:07:32;17.10;;;3.40;;
9508;SDS011;4792;50.088;8.122;2023-12-20T09:09:59;9.70;;;2.77;;
9508;SDS011;4792;50.088;8.122;2023-12-20T09:12:27;10.80;;;3.73;;
9508;SDS011;4792;50.088;8.122;2023-12-20T09:14:56;11.20;;;3.40;;
9508;SDS011;4792;50.088;8.122;2023-12-20T09:17:23;8.03;;;2.80;;
9508;SDS011;4792;50.088;8.122;2023-12-20T09:19:52;9.63;;;3.27;;
9508;SDS011;4792;50.088;8.122;2023-12-20T09:22:20;10.47;;;4.00;;
9508;SDS011;4792;50.088;8.122;2023-12-20T09:24:48;8.93;;;3.27;;
9508;SDS011;4792;50.088;8.122;2023-12-20T09:27:16;11.80;;;3.63;;
9508;SDS011;4792;50.088;8.122;2023-12-20T09:29:43;5.93;;;3.00;;
9508;SDS011;4792;50.088;8.122;2023-12-20T09:32:12;10.87;;;3.53;;
9508;SDS011;4792;50.088;8.122;2023-12-20T09:34:40;6.07;;;2.90;;
9508;SDS011;4792;50.088;8.122;2023-12-20T09:37:08;14.93;;;3.57;;
9508;SDS011;4792;50.088;8.122;2023-12-20T09:39:36;9.60;;;3.33;;
9508;SDS011;4792;50.088;8.122;2023-12-20T09:42:04;8.73;;;2.70;;
9508;SDS011;4792;50.088;8.122;2023-12-20T09:44:32;9.73;;;3.40;;
9508;SDS011;4792;50.088;8.122;2023-12-20T09:47:02;13.87;;;3.43;;
9508;SDS011;4792;50.088;8.122;2023-12-20T09:49:32;9.97;;;3.13;;
9508;SDS011;4792;50.088;8.122;2023-12-20T09:52:00;10.93;;;3.70;;
9508;SDS011;4792;50.088;8.122;2023-12-20T09:54:28;11.40;;;4.47;;
9508;SDS011;4792;50.088;8.122;2023-12-20T09:56:56;17.07;;;5.57;;
9508;SDS011;4792;50.088;8.122;2023-12-20T09:59:24;13.33;;;5.43;;
9508;SDS011;4792;50.088;8.122;2023-12-20T10:01:52;9.87;;;3.20;;
9508;SDS011;4792;50.088;8.122;2023-12-20T10:04:24;11.03;;;3.00;;
9508;SDS011;4792;50.088;8.122;2023-12-20T10:07:01;10.27;;;3.33;;
9508;SDS011;4792;50.088;8.122;2023-12-20T10:09:32;7.07;;;2.70;;
9508;SDS011;4792;50.088;8.122;2023-12-20T10:12:00;9.53;;;3.70;;
9508;SDS011;4792;50.088;8.122;2023-12-20T10:14:28;7.43;;;2.67;;
9508;SDS011;4792;50.088;8.122;2023-12-20T10:17:01;12.53;;;3.57;;
9508;SDS011;4792;50.088;8.122;2023-12-20T10:19:29;10.20;;;3.10;;
9508;SDS011;4792;50.088;8.122;2023-12-20T10:21:59;8.13;;;3.03;;
9508;SDS011;4792;50.088;8.122;2023-12-20T10:24:28;6.97;;;2.60;;
9508;SDS011;4792;50.088;8.122;2023-12-20T10:27:02;7.57;;;2.80;;
9508;SDS011;4792;50.088;8.122;2023-12-20T10:29:32;9.37;;;2.90;;
9508;SDS011;4792;50.088;8.122;2023-12-20T10:32:22;10.33;;;2.90;;
9508;SDS011;4792;50.088;8.122;2023-12-20T10:34:51;8.17;;;2.80;;
9508;SDS011;4792;50.088;8.122;2023-12-20T10:37:20;11.93;;;3.10;;
9508;SDS011;4792;50.088;8.122;2023-12-20T10:39:49;8.20;;;2.87;;
9508;SDS011;4792;50.088;8.122;2023-12-20T10:42:18;8.33;;;2.47;;
9508;SDS011;4792;50.088;8.122;2023-12-20T10:44:47;8.27;;;2.70;;
9508;SDS011;4792;50.088;8.122;2023-12-20T10:47:16;15.57;;;3.10;;
9508;SDS011;4792;50.088;8.122;2023-12-20T10:49:44;8.13;;;2.90;;
9508;SDS011;4792;50.088;8.122;2023-12-20T10:52:12;9.13;;;2.50;;
9508;SDS011;4792;50.088;8.122;2023-12-20T10:54:41;5.93;;;2.50;;
9508;SDS011;4792;50.088;8.122;2023-12-20T10:57:09;7.50;;;2.97;;
9508;SDS011;4792;50.088;8.122;2023-12-20T10:59:37;11.07;;;2.60;;
9508;SDS011;4792;50.088;8.122;2023-12-20T11:02:05;11.77;;;3.90;;
9508;SDS011;4792;50.088;8.122;2023-12-20T11:04:36;8.13;;;2.93;;
9508;SDS011;4792;50.088;8.122;2023-12-20T11:07:10;7.27;;;2.90;;
9508;SDS011;4792;50.088;8.122;2023-12-20T11:09:47;7.83;;;2.97;;
9508;SDS011;4792;50.088;8.122;2023-12-20T11:12:20;8.47;;;2.60;;
9508;SDS011;4792;50.088;8.122;2023-12-20T11:14:52;10.83;;;3.07;;
9508;SDS011;4792;50.088;8.122;2023-12-20T11:17:22;6.13;;;2.60;;
9508;SDS011;4792;50.088;8.122;2023-12-20T11:20:03;12.43;;;3.10;;
9508;SDS011;4792;50.088;8.122;2023-12-20T11:22:34;9.70;;;3.83;;
9508;SDS011;4792;50.088;8.122;2023-12-20T11:25:08;8.03;;;2.53;;
9508;SDS011;4792;50.088;8.122;2023-12-20T11:27:40;8.87;;;2.63;;
9508;SDS011;4792;50.088;8.122;2023-12-20T11:30:09;7.23;;;2.80;;
9508;SDS011;4792;50.088;8.122;2023-12-20T11:32:38;6.07;;;2.43;;
9508;SDS011;4792;50.088;8.122;2023-12-20T11:35:17;8.60;;;2.70;;
9508;SDS011;4792;50.088;8.122;2023-12-20T11:37:46;10.47;;;2.70;;
9508;SDS011;4792;50.088;8.122;2023-12-20T11:40:16;9.73;;;3.00;;
9508;SDS011;4792;50.088;8.122;2023-12-20T11:42:45;11.43;;;3.30;;
9508;SDS011;4792;50.088;8.122;2023-12-20T11:45:17;11.53;;;2.80;;
9508;SDS011;4792;50.088;8.122;2023-12-20T11:47:48;5.70;;;3.27;;
9508;SDS011;4792;50.088;8.122;2023-12-20T11:50:17;11.57;;;2.43;;
9508;SDS011;4792;50.088;8.122;2023-12-20T11:52:46;7.87;;;2.80;;
9508;SDS011;4792;50.088;8.122;2023-12-20T11:55:14;7.23;;;2.53;;
9508;SDS011;4792;50.088;8.122;2023-12-20T11:57:43;10.83;;;2.90;;
9508;SDS011;4792;50.088;8.122;2023-12-20T12:00:12;5.67;;;2.57;;
9508;SDS011;4792;50.088;8.122;2023-12-20T12:02:41;6.60;;;2.67;;
9508;SDS011;4792;50.088;8.122;2023-12-20T12:05:11;6.30;;;2.43;;
9508;SDS011;4792;50.088;8.122;2023-12-20T12:07:39;4.70;;;2.27;;
9508;SDS011;4792;50.088;8.122;2023-12-20T12:10:07;5.80;;;2.50;;
9508;SDS011;4792;50.088;8.122;2023-12-20T12:12:37;8.23;;;2.70;;
9508;SDS011;4792;50.088;8.122;2023-12-20T12:15:05;8.90;;;2.67;;
9508;SDS011;4792;50.088;8.122;2023-12-20T12:17:34;8.30;;;2.70;;
9508;SDS011;4792;50.088;8.122;2023-12-20T12:20:03;8.30;;;2.27;;
9508;SDS011;4792;50.088;8.122;2023-12-20T12:22:31;5.70;;;2.60;;
9508;SDS011;4792;50.088;8.122;2023-12-20T12:25:09;8.93;;;2.60;;
9508;SDS011;4792;50.088;8.122;2023-12-20T12:27:40;6.33;;;2.17;;
9508;SDS011;4792;50.088;8.122;2023-12-20T12:30:09;7.07;;;2.13;;
9508;SDS011;4792;50.088;8.122;2023-12-20T12:32:39;10.50;;;2.40;;
9508;SDS011;4792;50.088;8.122;2023-12-20T12:35:08;10.67;;;3.10;;
9508;SDS011;4792;50.088;8.122;2023-12-20T12:37:37;6.77;;;2.93;;
9508;SDS011;4792;50.088;8.122;2023-12-20T12:40:06;8.57;;;2.40;;
9508;SDS011;4792;50.088;8.122;2023-12-20T12:42:34;6.63;;;2.50;;
9508;SDS011;4792;50.088;8.122;2023-12-20T12:45:04;9.07;;;2.50;;
9508;SDS011;4792;50.088;8.122;2023-12-20T12:47:32;4.30;;;2.37;;
9508;SDS011;4792;50.088;8.122;2023-12-20T12:50:00;6.40;;;2.50;;
9508;SDS011;4792;50.088;8.122;2023-12-20T12:52:28;6.70;;;2.50;;
9508;SDS011;4792;50.088;8.122;2023-12-20T12:54:56;6.10;;;2.67;;
9508;SDS011;4792;50.088;8.122;2023-12-20T12:57:24;7.23;;;2.60;;
9508;SDS011;4792;50.088;8.122;2023-12-20T12:59:51;6.47;;;2.57;;
9508;SDS011;4792;50.088;8.122;2023-12-20T13:02:21;5.67;;;2.63;;
9508;SDS011;4792;50.088;8.122;2023-12-20T13:04:48;5.87;;;2.30;;
9508;SDS011;4792;50.088;8.122;2023-12-20T13:07:16;6.00;;;2.50;;
9508;SDS011;4792;50.088;8.122;2023-12-20T13:09:44;8.10;;;2.80;;
9508;SDS011;4792;50.088;8.122;2023-12-20T13:12:11;7.10;;;2.77;;
9508;SDS011;4792;50.088;8.122;2023-12-20T13:14:39;10.97;;;2.80;;
9508;SDS011;4792;50.088;8.122;2023-12-20T13:17:07;6.37;;;2.57;;
9508;SDS011;4792;50.088;8.122;2023-12-20T13:19:36;8.17;;;3.90;;
9508;SDS011;4792;50.088;8.122;2023-12-20T13:22:04;12.23;;;3.13;;
9508;SDS011;4792;50.088;8.122;2023-12-20T13:24:32;5.87;;;2.80;;
9508;SDS011;4792;50.088;8.122;2023-12-20T13:27:00;8.83;;;2.47;;
9508;SDS011;4792;50.088;8.122;2023-12-20T13:29:27;7.93;;;2.80;;
9508;SDS011;4792;50.088;8.122;2023-12-20T13:31:55;9.83;;;2.87;;
9508;SDS011;4792;50.088;8.122;2023-12-20T13:34:24;6.03;;;2.57;;
9508;SDS011;4792;50.088;8.122;2023-12-20T13:36:54;7.70;;;3.00;;
9508;SDS011;4792;50.088;8.122;2023-12-20T13:39:23;9.43;;;3.00;;
9508;SDS011;4792;50.088;8.122;2023-12-20T13:41:50;5.57;;;3.00;;
9508;SDS011;4792;50.088;8.122;2023-12-20T13:44:18;7.27;;;2.80;;
9508;SDS011;4792;50.088;8.122;2023-12-20T13:46:46;8.37;;;3.20;;
9508;SDS011;4792;50.088;8.122;2023-12-20T13:49:15;9.80;;;2.70;;
9508;SDS011;4792;50.088;8.122;2023-12-20T13:51:43;8.30;;;2.80;;
9508;SDS011;4792;50.088;8.122;2023-12-20T13:54:12;6.07;;;2.73;;
9508;SDS011;4792;50.088;8.122;2023-12-20T13:56:40;8.73;;;2.40;;
9508;SDS011;4792;50.088;8.122;2023-12-20T13:59:22;6.97;;;2.60;;
9508;SDS011;4792;50.088;8.122;2023-12-20T14:01:50;8.13;;;2.80;;
9508;SDS011;4792;50.088;8.122;2023-12-20T14:04:18;7.57;;;2.50;;
9508;SDS011;4792;50.088;8.122;2023-12-20T14:07:05;4.80;;;2.27;;
9508;SDS011;4792;50.088;8.122;2023-12-20T14:09:35;9.37;;;2.97;;
9508;SDS011;4792;50.088;8.122;2023-12-20T14:12:03;5.47;;;2.47;;
9508;SDS011;4792;50.088;8.122;2023-12-20T14:14:31;8.93;;;2.80;;
9508;SDS011;4792;50.088;8.122;2023-12-20T14:16:59;8.70;;;2.67;;
9508;SDS011;4792;50.088;8.122;2023-12-20T14:19:26;3.23;;;2.13;;
9508;SDS011;4792;50.088;8.122;2023-12-20T14:21:54;7.20;;;2.13;;
9508;SDS011;4792;50.088;8.122;2023-12-20T14:24:22;9.17;;;2.50;;
9508;SDS011;4792;50.088;8.122;2023-12-20T14:26:52;7.93;;;2.20;;
9508;SDS011;4792;50.088;8.122;2023-12-20T14:29:20;4.27;;;1.97;;
9508;SDS011;4792;50.088;8.122;2023-12-20T14:31:50;5.30;;;2.40;;
9508;SDS011;4792;50.088;8.122;2023-12-20T14:34:18;5.43;;;2.00;;
9508;SDS011;4792;50.088;8.122;2023-12-20T14:36:45;7.13;;;2.40;;
9508;SDS011;4792;50.088;8.122;2023-12-20T14:39:13;4.23;;;2.40;;
9508;SDS011;4792;50.088;8.122;2023-12-20T14:41:41;6.03;;;2.23;;
9508;SDS011;4792;50.088;8.122;2023-12-20T14:44:10;8.27;;;2.43;;
9508;SDS011;4792;50.088;8.122;2023-12-20T14:46:38;11.43;;;2.90;;
9508;SDS011;4792;50.088;8.122;2023-12-20T14:49:07;7.43;;;2.13;;
9508;SDS011;4792;50.088;8.122;2023-12-20T14:51:35;6.20;;;2.50;;
9508;SDS011;4792;50.088;8.122;2023-12-20T14:54:03;6.33;;;2.10;;
9508;SDS011;4792;50.088;8.122;2023-12-20T14:56:31;7.83;;;2.30;;
9508;SDS011;4792;50.088;8.122;2023-12-20T14:58:59;6.77;;;2.30;;
9508;SDS011;4792;50.088;8.122;2023-12-20T15:01:30;8.93;;;2.13;;
9508;SDS011;4792;50.088;8.122;2023-12-20T15:03:58;8.13;;;2.90;;
9508;SDS011;4792;50.088;8.122;2023-12-20T15:06:27;10.07;;;2.50;;
9508;SDS011;4792;50.088;8.122;2023-12-20T15:08:54;6.90;;;2.77;;
9508;SDS011;4792;50.088;8.122;2023-12-20T15:11:22;8.60;;;2.73;;
9508;SDS011;4792;50.088;8.122;2023-12-20T15:13:49;8.20;;;3.13;;
9508;SDS011;4792;50.088;8.122;2023-12-20T15:16:21;5.17;;;2.60;;
9508;SDS011;4792;50.088;8.122;2023-12-20T15:18:50;6.40;;;2.90;;